createdAt,value
2022-08-04T00:00:45.966Z,8.20
2022-08-04T00:03:28.054Z,8.10
2022-08-04T00:06:04.524Z,7.80
2022-08-04T00:08:49.511Z,7.60
2022-08-04T00:11:21.604Z,7.20
2022-08-04T00:14:03.617Z,7.50
2022-08-04T00:16:38.568Z,8.50
2022-08-04T00:19:21.826Z,8.00
2022-08-04T00:21:52.673Z,9.90
2022-08-04T00:24:20.133Z,8.00
2022-08-04T00:26:47.590Z,8.20
2022-08-04T00:29:14.740Z,9.50
2022-08-04T00:31:56.443Z,8.50
2022-08-04T00:34:26.351Z,8.10
2022-08-04T00:36:54.530Z,9.80
2022-08-04T00:39:22.327Z,10.90
2022-08-04T00:42:13.720Z,8.40
2022-08-04T00:44:40.561Z,12.60
2022-08-04T00:47:29.549Z,9.80
2022-08-04T00:50:36.406Z,9.40
2022-08-04T00:53:07.653Z,9.60
2022-08-04T00:56:12.384Z,9.50
2022-08-04T00:59:27.870Z,10.00
2022-08-04T01:02:22.673Z,8.90
2022-08-04T01:04:50.983Z,9.60
2022-08-04T01:07:48.859Z,9.10
2022-08-04T01:10:40.969Z,8.80
2022-08-04T01:13:22.358Z,8.80
2022-08-04T01:15:59.357Z,10.30
2022-08-04T01:18:52.422Z,9.10
2022-08-04T01:21:34.919Z,8.80
2022-08-04T01:24:31.662Z,10.40
2022-08-04T01:27:43.560Z,9.30
2022-08-04T01:30:10.512Z,10.00
2022-08-04T01:32:39.075Z,11.20
2022-08-04T01:35:09.867Z,9.50
2022-08-04T01:38:01.762Z,9.60
2022-08-04T01:40:45.507Z,8.60
2022-08-04T01:43:14.400Z,8.90
2022-08-04T01:45:41.865Z,11.20
2022-08-04T01:48:09.535Z,10.40
2022-08-04T01:50:37.294Z,11.10
2022-08-04T01:53:04.548Z,10.50
2022-08-04T01:55:54.252Z,10.00
2022-08-04T01:58:19.941Z,10.20
2022-08-04T02:01:08.866Z,9.80
2022-08-04T02:04:21.080Z,9.70
2022-08-04T02:06:41.001Z,9.40
2022-08-04T02:09:21.468Z,10.60
2022-08-04T02:11:59.063Z,9.70
2022-08-04T02:14:43.111Z,10.40
2022-08-04T02:17:15.107Z,10.50
2022-08-04T02:20:02.812Z,11.40
2022-08-04T02:22:30.470Z,10.20
2022-08-04T02:25:09.098Z,10.30
2022-08-04T02:27:59.765Z,10.40
2022-08-04T02:30:56.956Z,10.30
2022-08-04T02:33:27.688Z,17.20
2022-08-04T02:35:57.666Z,13.60
2022-08-04T02:38:55.425Z,10.40
2022-08-04T02:41:25.201Z,10.30
2022-08-04T02:43:52.899Z,11.10
2022-08-04T02:46:20.877Z,11.30
2022-08-04T02:48:48.983Z,13.50
2022-08-04T02:51:17.181Z,11.40
2022-08-04T02:53:44.331Z,11.30
2022-08-04T02:56:11.279Z,10.60
2022-08-04T02:58:38.169Z,10.50
2022-08-04T03:01:05.255Z,11.20
2022-08-04T03:03:40.580Z,11.80
2022-08-04T03:06:11.584Z,11.70
2022-08-04T03:09:23.482Z,12.10
2022-08-04T03:12:14.700Z,10.70
2022-08-04T03:15:00.494Z,10.60
2022-08-04T03:17:53.633Z,11.10
2022-08-04T03:20:45.632Z,10.80
2022-08-04T03:23:45.422Z,11.10
2022-08-04T03:26:34.279Z,11.20
2022-08-04T03:29:11.272Z,11.60
2022-08-04T03:32:09.138Z,11.70
2022-08-04T03:35:13.683Z,11.20
2022-08-04T03:38:08.778Z,12.20
2022-08-04T03:40:50.581Z,11.30
2022-08-04T03:43:57.083Z,13.80
2022-08-04T03:46:17.349Z,10.90
2022-08-04T03:49:21.598Z,11.90
2022-08-04T03:52:26.093Z,12.50
2022-08-04T03:55:11.781Z,12.80
2022-08-04T03:57:48.596Z,12.40
2022-08-04T04:00:19.435Z,13.40
2022-08-04T04:03:08.367Z,12.70
2022-08-04T04:05:43.151Z,13.70
2022-08-04T04:08:40.664Z,13.30
2022-08-04T04:11:55.449Z,14.40
2022-08-04T04:14:50.350Z,15.20
2022-08-04T04:17:45.249Z,15.40
2022-08-04T04:20:31.036Z,18.00
2022-08-04T04:23:23.170Z,17.20
2022-08-04T04:26:02.405Z,17.60
2022-08-04T04:28:46.089Z,17.60
2022-08-04T04:31:33.788Z,17.50
2022-08-04T04:34:45.996Z,18.10
2022-08-04T04:37:18.822Z,17.60
2022-08-04T04:40:03.254Z,17.40
2022-08-04T04:42:30.690Z,17.20
2022-08-04T04:45:28.764Z,16.80
2022-08-04T04:48:08.911Z,18.90
2022-08-04T04:51:18.270Z,19.00
2022-08-04T04:54:09.391Z,18.80
2022-08-04T04:56:36.339Z,18.00
2022-08-04T04:59:04.229Z,18.00
2022-08-04T05:02:01.566Z,20.10
2022-08-04T05:04:54.931Z,19.40
2022-08-04T05:07:28.151Z,18.70
2022-08-04T05:10:12.584Z,19.20
2022-08-04T05:14:31.845Z,19.70
2022-08-04T05:15:32.588Z,19.80
2022-08-04T05:17:59.588Z,18.10
2022-08-04T05:20:35.939Z,20.70
2022-08-04T05:23:16.870Z,18.40
2022-08-04T05:25:58.785Z,18.50
2022-08-04T05:28:45.571Z,18.40
2022-08-04T05:31:14.456Z,18.30
2022-08-04T05:33:46.434Z,17.50
2022-08-04T05:36:29.432Z,18.70
2022-08-04T05:39:04.353Z,19.60
2022-08-04T05:41:32.406Z,18.80
2022-08-04T05:44:12.107Z,17.50
2022-08-04T05:46:39.156Z,17.80
2022-08-04T05:49:07.082Z,19.20
2022-08-04T05:51:34.791Z,17.50
2022-08-04T05:54:01.843Z,18.50
2022-08-04T05:56:29.404Z,17.90
2022-08-04T05:58:56.400Z,18.90
2022-08-04T06:01:24.162Z,18.20
2022-08-04T06:03:51.772Z,18.70
2022-08-04T06:06:18.921Z,19.70
2022-08-04T06:08:45.865Z,23.50
2022-08-04T06:11:12.808Z,20.40
2022-08-04T06:13:52.715Z,18.40
2022-08-04T06:16:28.729Z,19.60
2022-08-04T06:20:00.492Z,20.00
2022-08-04T06:21:49.431Z,20.70
2022-08-04T06:24:21.233Z,18.70
2022-08-04T06:26:48.547Z,20.30
2022-08-04T06:29:25.116Z,19.40
2022-08-04T06:32:29.912Z,20.00
2022-08-04T06:34:46.561Z,20.50
2022-08-04T06:37:41.013Z,20.80
2022-08-04T06:40:01.224Z,20.40
2022-08-04T06:42:28.581Z,20.10
2022-08-04T06:44:58.655Z,21.60
2022-08-04T06:47:25.650Z,38.20
2022-08-04T06:51:24.665Z,47.00
2022-08-04T06:52:40.433Z,48.20
2022-08-04T06:55:08.973Z,45.60
2022-08-04T06:57:35.960Z,41.40
2022-08-04T07:00:09.291Z,29.30
2022-08-04T07:02:40.095Z,28.60
2022-08-04T07:05:08.139Z,28.00
2022-08-04T07:07:37.178Z,27.40
2022-08-04T07:10:23.976Z,23.50
2022-08-04T07:12:51.130Z,21.60
2022-08-04T07:15:21.051Z,33.90
2022-08-04T07:17:49.703Z,44.50
2022-08-04T07:20:34.891Z,61.10
2022-08-04T07:23:06.861Z,38.10
2022-08-04T07:26:00.279Z,31.80
2022-08-04T07:28:26.092Z,26.00
2022-08-04T07:30:54.373Z,23.20
2022-08-04T07:33:22.098Z,23.60
2022-08-04T07:36:05.175Z,25.10
2022-08-04T07:38:37.586Z,22.80
2022-08-04T07:44:00.173Z,20.50
2022-08-04T07:46:27.625Z,20.70
2022-08-04T07:49:01.310Z,18.50
2022-08-04T07:51:31.788Z,19.10
2022-08-04T07:53:59.013Z,17.10
2022-08-04T07:56:26.988Z,18.80
2022-08-04T07:58:55.463Z,17.70
2022-08-04T08:01:23.714Z,16.90
2022-08-04T08:03:51.707Z,15.80
2022-08-04T08:06:32.746Z,15.70
2022-08-04T08:09:12.213Z,16.20
2022-08-04T08:12:37.063Z,15.60
2022-08-04T08:14:27.161Z,16.30
2022-08-04T08:16:54.168Z,17.40
2022-08-04T08:19:21.119Z,17.00
2022-08-04T08:21:58.843Z,16.80
2022-08-04T08:24:26.898Z,16.40
2022-08-04T08:26:53.877Z,16.30
2022-08-04T08:29:20.788Z,16.80
2022-08-04T08:31:57.194Z,16.90
2022-08-04T08:34:30.050Z,16.90
2022-08-04T08:37:05.705Z,16.70
2022-08-04T08:39:41.415Z,14.80
2022-08-04T08:42:32.270Z,15.60
2022-08-04T08:45:29.733Z,14.90
2022-08-04T08:48:07.947Z,13.60
2022-08-04T08:51:06.546Z,13.80
2022-08-04T08:53:37.233Z,13.00
2022-08-04T08:59:18.798Z,13.10
2022-08-04T09:01:52.390Z,13.10
2022-08-04T09:04:35.640Z,12.80
2022-08-04T09:07:22.129Z,15.50
2022-08-04T09:09:49.918Z,12.20
2022-08-04T09:12:26.298Z,11.40
2022-08-04T09:14:59.080Z,12.40
2022-08-04T09:17:56.134Z,11.60
2022-08-04T09:20:39.438Z,11.50
2022-08-04T09:23:09.178Z,10.80
2022-08-04T09:25:43.274Z,14.10
2022-08-04T09:28:52.884Z,11.40
2022-08-04T09:31:22.985Z,10.50
2022-08-04T09:34:11.020Z,10.60
2022-08-04T09:36:43.387Z,11.70
2022-08-04T09:39:28.840Z,10.20
2022-08-04T09:42:04.487Z,10.00
2022-08-04T09:45:05.612Z,9.50
2022-08-04T09:47:54.842Z,10.60
2022-08-04T09:50:44.810Z,9.60
2022-08-04T09:53:27.032Z,10.90
2022-08-04T09:56:03.789Z,9.80
2022-08-04T09:58:58.817Z,9.00
2022-08-04T10:01:26.476Z,8.80
2022-08-04T10:03:56.949Z,10.10
2022-08-04T10:06:41.058Z,8.90
2022-08-04T10:09:42.205Z,9.50
2022-08-04T10:12:29.738Z,11.00
2022-08-04T10:15:03.093Z,11.30
2022-08-04T10:17:57.425Z,11.60
2022-08-04T10:20:59.105Z,10.80
2022-08-04T10:24:00.586Z,11.30
2022-08-04T10:26:35.884Z,11.60
2022-08-04T10:29:05.704Z,13.00
2022-08-04T10:31:38.995Z,10.70
2022-08-04T10:34:12.082Z,11.20
2022-08-04T10:36:45.434Z,10.60
2022-08-04T10:39:42.118Z,13.20
2022-08-04T10:42:17.326Z,11.90
2022-08-04T10:45:15.843Z,10.50
2022-08-04T10:47:53.447Z,9.10
2022-08-04T10:50:21.675Z,8.90
2022-08-04T10:53:02.481Z,9.10
2022-08-04T10:56:06.633Z,10.90
2022-08-04T11:02:02.009Z,8.70
2022-08-04T11:04:30.828Z,8.20
2022-08-04T11:06:59.039Z,8.20
2022-08-04T11:09:26.052Z,8.10
2022-08-04T11:12:23.821Z,8.80
2022-08-04T11:14:54.579Z,9.10
2022-08-04T11:17:29.147Z,8.20
2022-08-04T11:20:36.789Z,9.70
2022-08-04T11:23:09.766Z,8.90
2022-08-04T11:25:55.865Z,8.70
2022-08-04T11:28:30.646Z,7.00
2022-08-04T11:31:04.292Z,7.20
2022-08-04T11:34:05.257Z,7.00
2022-08-04T11:36:37.109Z,6.60
2022-08-04T11:39:25.000Z,6.30
2022-08-04T11:41:54.046Z,8.00
2022-08-04T11:44:51.711Z,8.10
2022-08-04T11:47:24.869Z,6.70
2022-08-04T11:50:17.920Z,6.30
2022-08-04T11:52:45.110Z,6.00
2022-08-04T11:55:14.304Z,5.80
2022-08-04T11:57:42.317Z,6.90
2022-08-04T12:00:12.717Z,6.30
2022-08-04T12:02:49.730Z,5.80
2022-08-04T12:05:35.589Z,6.00
2022-08-04T12:08:08.130Z,6.30
2022-08-04T12:10:54.445Z,6.70
2022-08-04T12:13:28.967Z,6.50
2022-08-04T12:16:03.903Z,6.10
2022-08-04T12:18:40.415Z,9.40
2022-08-04T12:21:42.703Z,7.00
2022-08-04T12:24:19.260Z,5.80
2022-08-04T12:27:12.665Z,6.30
2022-08-04T12:29:40.781Z,6.00
2022-08-04T12:32:13.027Z,7.30
2022-08-04T12:34:43.263Z,7.00
2022-08-04T12:37:23.940Z,5.80
2022-08-04T12:40:27.486Z,5.70
2022-08-04T12:42:56.443Z,7.30
2022-08-04T12:45:26.732Z,7.60
2022-08-04T12:47:54.873Z,9.10
2022-08-04T12:50:22.474Z,6.30
2022-08-04T12:53:03.449Z,7.40
2022-08-04T12:55:32.113Z,8.00
2022-08-04T12:57:59.686Z,5.60
2022-08-04T13:00:32.125Z,6.60
2022-08-04T13:03:12.787Z,7.80
2022-08-04T13:05:40.952Z,10.40
2022-08-04T13:08:08.459Z,6.60
2022-08-04T13:10:43.387Z,7.20
2022-08-04T13:13:16.837Z,8.70
2022-08-04T13:15:47.336Z,8.20
2022-08-04T13:18:28.943Z,6.40
2022-08-04T13:20:58.218Z,9.20
2022-08-04T13:23:26.938Z,6.10
2022-08-04T13:26:44.666Z,8.10
2022-08-04T13:28:43.687Z,12.00
2022-08-04T13:31:16.767Z,15.70
2022-08-04T13:33:45.968Z,12.90
2022-08-04T13:36:14.601Z,19.20
2022-08-04T13:38:50.494Z,26.20
2022-08-04T13:41:17.820Z,22.20
2022-08-04T13:43:48.472Z,20.10
2022-08-04T13:46:38.339Z,13.60
2022-08-04T13:49:30.977Z,19.10
2022-08-04T13:51:59.076Z,17.60
2022-08-04T13:54:55.613Z,10.40
2022-08-04T13:57:24.319Z,13.20
2022-08-04T13:59:56.813Z,12.70
2022-08-04T14:02:26.894Z,13.30
2022-08-04T14:04:57.348Z,12.40
2022-08-04T14:07:25.802Z,13.70
2022-08-04T14:10:02.655Z,14.90
2022-08-04T14:12:38.563Z,17.60
2022-08-04T14:16:01.373Z,12.50
2022-08-04T14:18:25.535Z,14.10
2022-08-04T14:21:02.481Z,12.00
2022-08-04T14:23:31.848Z,12.00
2022-08-04T14:26:00.634Z,10.40
2022-08-04T14:29:27.844Z,11.00
2022-08-04T14:31:20.618Z,11.50
2022-08-04T14:34:01.432Z,10.10
2022-08-04T14:37:16.250Z,10.60
2022-08-04T14:39:39.402Z,14.40
2022-08-04T14:42:07.409Z,12.20
2022-08-04T14:44:55.049Z,11.80
2022-08-04T14:47:52.717Z,13.10
2022-08-04T14:50:20.596Z,16.90
2022-08-04T14:52:47.827Z,12.70
2022-08-04T14:55:20.525Z,13.30
2022-08-04T14:58:35.053Z,11.10
2022-08-04T15:00:35.895Z,12.60
2022-08-04T15:03:10.965Z,9.60
2022-08-04T15:06:36.589Z,9.50
2022-08-04T15:09:09.619Z,8.20
2022-08-04T15:11:41.489Z,8.90
2022-08-04T15:14:35.949Z,9.80
2022-08-04T15:16:57.463Z,8.50
2022-08-04T15:19:25.315Z,8.20
2022-08-04T15:21:52.288Z,10.70
2022-08-04T15:24:19.236Z,8.20
2022-08-04T15:26:50.691Z,7.70
2022-08-04T15:30:00.291Z,9.60
2022-08-04T15:32:19.642Z,9.30
2022-08-04T15:34:51.269Z,12.10
2022-08-04T15:37:38.496Z,7.90
2022-08-04T15:41:01.976Z,8.00
2022-08-04T15:43:41.106Z,6.60
2022-08-04T15:46:42.725Z,7.30
2022-08-04T15:48:54.890Z,8.10
2022-08-04T15:51:32.233Z,7.50
2022-08-04T15:54:03.713Z,8.00
2022-08-04T15:56:35.990Z,7.60
2022-08-04T15:59:02.940Z,8.20
2022-08-04T16:01:29.829Z,7.10
2022-08-04T16:03:59.852Z,7.10
2022-08-04T16:06:29.525Z,6.70
2022-08-04T16:09:04.580Z,10.40
2022-08-04T16:11:37.326Z,7.70
2022-08-04T16:14:04.905Z,7.80
2022-08-04T16:16:38.710Z,7.90
2022-08-04T16:19:35.385Z,7.80
2022-08-04T16:22:03.330Z,8.20
2022-08-04T16:24:30.892Z,8.10
2022-08-04T16:27:01.802Z,8.80
2022-08-04T16:29:38.257Z,8.00
2022-08-04T16:32:13.263Z,8.60
2022-08-04T16:34:55.548Z,8.40
2022-08-04T16:37:43.103Z,8.80
2022-08-04T16:40:38.570Z,7.80
2022-08-04T16:43:14.683Z,7.80
2022-08-04T16:45:42.475Z,9.50
2022-08-04T16:48:10.653Z,7.30
2022-08-04T16:50:57.852Z,7.90
2022-08-04T16:54:03.742Z,7.60
2022-08-04T16:56:34.435Z,8.00
2022-08-04T16:59:12.565Z,8.60
2022-08-04T17:01:50.557Z,17.50
2022-08-04T17:04:18.955Z,8.50
2022-08-04T17:06:49.652Z,8.00
2022-08-04T17:09:17.903Z,7.20
2022-08-04T17:11:45.740Z,8.50
2022-08-04T17:14:13.407Z,7.90
2022-08-04T17:16:42.621Z,9.50
2022-08-04T17:19:25.094Z,7.70
2022-08-04T17:22:04.292Z,8.80
2022-08-04T17:24:38.241Z,7.70
2022-08-04T17:28:10.501Z,8.20
2022-08-04T17:29:54.394Z,7.60
2022-08-04T17:32:23.057Z,7.80
2022-08-04T17:34:51.679Z,8.40
2022-08-04T17:37:39.314Z,8.70
2022-08-04T17:40:10.354Z,7.80
2022-08-04T17:42:39.868Z,8.20
2022-08-04T17:47:59.562Z,7.50
2022-08-04T17:54:01.472Z,9.10
2022-08-04T17:56:31.782Z,7.60
2022-08-04T17:59:55.737Z,7.60
2022-08-04T18:02:32.583Z,7.50
2022-08-04T18:05:07.581Z,7.90
2022-08-04T18:08:38.676Z,7.60
2022-08-04T18:10:52.328Z,7.70
2022-08-04T18:13:27.404Z,10.20
2022-08-04T18:16:04.972Z,7.80
2022-08-04T18:18:32.208Z,8.20
2022-08-04T18:23:50.729Z,8.30
2022-08-04T18:26:18.623Z,8.00
2022-08-04T18:28:50.993Z,8.10
2022-08-04T18:31:17.937Z,8.70
2022-08-04T18:33:56.955Z,8.40
2022-08-04T18:36:32.796Z,7.40
2022-08-04T18:39:12.720Z,8.10
2022-08-04T18:42:02.978Z,8.90
2022-08-04T18:44:29.517Z,9.00
2022-08-04T18:47:19.467Z,7.90
2022-08-04T18:51:00.347Z,8.90
2022-08-04T18:52:33.461Z,8.60
2022-08-04T18:55:01.842Z,8.90
2022-08-04T18:57:59.430Z,9.70
2022-08-04T19:00:19.791Z,9.60
2022-08-04T19:02:47.686Z,9.40
2022-08-04T19:05:17.503Z,9.80
2022-08-04T19:08:01.665Z,9.50
2022-08-04T19:10:32.490Z,10.40
2022-08-04T19:13:02.305Z,9.10
2022-08-04T19:15:34.564Z,9.90
2022-08-04T19:18:02.570Z,9.90
2022-08-04T19:20:34.221Z,9.30
2022-08-04T19:24:29.421Z,8.80
2022-08-04T19:25:58.834Z,9.50
2022-08-04T19:28:34.095Z,9.40
2022-08-04T19:31:03.595Z,10.00
2022-08-04T19:33:58.991Z,8.40
2022-08-04T19:36:17.615Z,9.30
2022-08-04T19:38:44.821Z,10.30
2022-08-04T19:41:14.381Z,11.10
2022-08-04T19:43:43.787Z,9.80
2022-08-04T19:46:12.058Z,9.10
2022-08-04T19:48:40.908Z,9.70
2022-08-04T19:51:09.504Z,9.80
2022-08-04T19:53:37.549Z,10.50
2022-08-04T19:56:10.192Z,12.20
2022-08-04T19:58:38.747Z,8.70
2022-08-04T20:01:31.528Z,9.10
2022-08-04T20:04:09.218Z,8.80
2022-08-04T20:06:37.582Z,7.30
2022-08-04T20:09:04.635Z,7.50
2022-08-04T20:11:51.456Z,7.70
2022-08-04T20:14:31.336Z,8.40
2022-08-04T20:17:02.043Z,8.70
2022-08-04T20:19:30.335Z,8.30
2022-08-04T20:21:58.489Z,8.70
2022-08-04T20:24:38.265Z,9.50
2022-08-04T20:27:15.066Z,8.10
2022-08-04T20:29:49.643Z,9.90
2022-08-04T20:32:22.461Z,9.30
2022-08-04T20:34:51.411Z,9.80
2022-08-04T20:37:20.603Z,8.10
2022-08-04T20:39:54.473Z,8.90
2022-08-04T20:42:27.363Z,8.50
2022-08-04T20:45:01.344Z,8.40
2022-08-04T20:50:16.510Z,9.80
2022-08-04T20:52:44.584Z,9.50
2022-08-04T20:55:11.633Z,8.70
2022-08-04T20:57:47.956Z,8.50
2022-08-04T21:00:29.976Z,8.80
2022-08-04T21:02:58.998Z,8.60
2022-08-04T21:05:26.577Z,9.40
2022-08-04T21:07:57.191Z,8.80
2022-08-04T21:10:25.778Z,8.40
2022-08-04T21:12:53.747Z,8.90
2022-08-04T21:15:25.083Z,8.90
2022-08-04T21:17:59.382Z,9.20
2022-08-04T21:20:32.437Z,9.00
2022-08-04T21:23:01.932Z,9.20
2022-08-04T21:25:31.406Z,8.80
2022-08-04T21:28:04.041Z,8.70
2022-08-04T21:30:36.979Z,9.20
2022-08-04T21:33:18.982Z,9.70
2022-08-04T21:35:47.295Z,8.90
2022-08-04T21:38:17.636Z,9.40
2022-08-04T21:40:55.703Z,9.40
2022-08-04T21:43:27.251Z,9.20
2022-08-04T21:45:55.078Z,10.80
2022-08-04T21:52:00.579Z,9.70
2022-08-04T21:54:09.327Z,9.20
2022-08-04T21:56:36.377Z,9.70
2022-08-04T21:59:10.977Z,9.80
2022-08-04T22:01:52.366Z,9.70
2022-08-04T22:04:22.314Z,9.80
2022-08-04T22:06:52.452Z,9.60
2022-08-04T22:09:21.834Z,9.50
2022-08-04T22:11:50.851Z,9.20
2022-08-04T22:14:27.655Z,9.30
2022-08-04T22:17:01.951Z,9.50
2022-08-04T22:19:50.286Z,9.50
2022-08-04T22:22:25.124Z,11.30
2022-08-04T22:24:55.171Z,10.00
2022-08-04T22:28:00.878Z,10.20
2022-08-04T22:30:33.232Z,10.10
2022-08-04T22:33:05.028Z,10.90
2022-08-04T22:35:44.371Z,9.30
2022-08-04T22:38:31.683Z,9.10
2022-08-04T22:41:08.802Z,10.80
2022-08-04T22:43:37.628Z,9.80
2022-08-04T22:46:11.949Z,10.80
2022-08-04T22:48:43.510Z,11.30
2022-08-04T22:51:12.887Z,11.10
2022-08-04T22:53:40.307Z,12.20
2022-08-04T22:56:10.493Z,11.50
2022-08-04T22:58:51.097Z,10.30
2022-08-04T23:01:19.442Z,11.90
2022-08-04T23:03:50.936Z,10.20
2022-08-04T23:06:24.704Z,10.60
2022-08-04T23:08:52.120Z,10.40
2022-08-04T23:11:19.036Z,11.60
2022-08-04T23:13:47.229Z,11.00
2022-08-04T23:16:17.812Z,12.00
2022-08-04T23:18:48.193Z,11.40
2022-08-04T23:21:16.543Z,11.70
2022-08-04T23:23:55.201Z,10.80
2022-08-04T23:26:28.878Z,10.50
2022-08-04T23:28:56.515Z,11.30
2022-08-04T23:31:24.314Z,11.30
2022-08-04T23:33:52.512Z,10.80
2022-08-04T23:36:29.340Z,10.80
2022-08-04T23:39:00.674Z,11.10
2022-08-04T23:41:55.323Z,11.40
2022-08-04T23:44:17.472Z,9.90
2022-08-04T23:46:53.335Z,11.40
2022-08-04T23:49:20.969Z,10.90
2022-08-04T23:51:49.651Z,11.20
2022-08-04T23:54:16.927Z,11.10
2022-08-04T23:56:52.781Z,12.10
2022-08-04T23:59:52.234Z,11.40
